sensor_id;sensor_type;location;lat;lon;timestamp;pressure;altitude;pressure_sealevel;temperature;humidity
7433;BME280;32233;49.500;7.764;2023-09-18T00:00:17;97726.13;;;16.98;100.00
7433;BME280;32233;49.500;7.764;2023-09-18T00:02:43;97724.25;;;16.93;100.00
7433;BME280;32233;49.500;7.764;2023-09-18T00:05:10;97718.91;;;16.93;100.00
7433;BME280;32233;49.500;7.764;2023-09-18T00:07:37;97712.78;;;16.98;100.00
7433;BME280;32233;49.500;7.764;2023-09-18T00:10:04;97712.53;;;16.99;100.00
7433;BME280;32233;49.500;7.764;2023-09-18T00:12:31;97718.69;;;17.00;100.00
7433;BME280;32233;49.500;7.764;2023-09-18T00:14:57;97715.44;;;16.93;100.00
7433;BME280;32233;49.500;7.764;2023-09-18T00:17:24;97721.63;;;16.98;100.00
7433;BME280;32233;49.500;7.764;2023-09-18T00:19:50;97719.50;;;17.05;100.00
7433;BME280;32233;49.500;7.764;2023-09-18T00:22:18;97713.34;;;17.05;100.00
7433;BME280;32233;49.500;7.764;2023-09-18T00:24:44;97720.84;;;17.03;100.00
7433;BME280;32233;49.500;7.764;2023-09-18T00:27:11;97714.16;;;17.05;100.00
7433;BME280;32233;49.500;7.764;2023-09-18T00:29:38;97704.03;;;17.07;100.00
7433;BME280;32233;49.500;7.764;2023-09-18T00:32:05;97704.28;;;17.06;100.00
7433;BME280;32233;49.500;7.764;2023-09-18T00:34:32;97709.09;;;17.09;100.00
7433;BME280;32233;49.500;7.764;2023-09-18T00:36:59;97707.22;;;17.09;100.00
7433;BME280;32233;49.500;7.764;2023-09-18T00:39:26;97696.03;;;17.07;100.00
7433;BME280;32233;49.500;7.764;2023-09-18T00:41:52;97700.56;;;17.07;100.00
7433;BME280;32233;49.500;7.764;2023-09-18T00:44:21;97700.56;;;17.07;100.00
7433;BME280;32233;49.500;7.764;2023-09-18T00:46:49;97705.34;;;17.05;100.00
7433;BME280;32233;49.500;7.764;2023-09-18T00:49:17;97706.97;;;17.11;100.00
7433;BME280;32233;49.500;7.764;2023-09-18T00:51:44;97708.06;;;17.15;100.00
7433;BME280;32233;49.500;7.764;2023-09-18T00:54:15;97715.53;;;17.13;100.00
7433;BME280;32233;49.500;7.764;2023-09-18T00:56:43;97716.88;;;17.21;100.00
7433;BME280;32233;49.500;7.764;2023-09-18T00:59:10;97717.47;;;17.33;100.00
7433;BME280;32233;49.500;7.764;2023-09-18T01:01:38;97717.75;;;17.42;100.00
7433;BME280;32233;49.500;7.764;2023-09-18T01:04:05;97722.84;;;17.43;100.00
7433;BME280;32233;49.500;7.764;2023-09-18T01:06:32;97721.22;;;17.42;100.00
7433;BME280;32233;49.500;7.764;2023-09-18T01:08:58;97729.25;;;17.42;100.00
7433;BME280;32233;49.500;7.764;2023-09-18T01:11:58;97744.22;;;17.43;100.00
7433;BME280;32233;49.500;7.764;2023-09-18T01:14:48;97746.06;;;17.43;100.00
7433;BME280;32233;49.500;7.764;2023-09-18T01:17:18;97753.84;;;17.39;100.00
7433;BME280;32233;49.500;7.764;2023-09-18T01:19:46;97755.66;;;17.33;100.00
7433;BME280;32233;49.500;7.764;2023-09-18T01:22:15;97747.38;;;17.30;100.00
7433;BME280;32233;49.500;7.764;2023-09-18T01:24:44;97759.91;;;17.24;100.00
7433;BME280;32233;49.500;7.764;2023-09-18T01:27:13;97784.50;;;17.31;100.00
7433;BME280;32233;49.500;7.764;2023-09-18T01:29:40;97776.03;;;17.55;100.00
7433;BME280;32233;49.500;7.764;2023-09-18T01:32:07;97785.25;;;17.85;100.00
7433;BME280;32233;49.500;7.764;2023-09-18T01:34:40;97778.03;;;17.85;100.00
7433;BME280;32233;49.500;7.764;2023-09-18T01:37:10;97762.78;;;17.80;100.00
7433;BME280;32233;49.500;7.764;2023-09-18T01:39:39;97755.81;;;17.74;100.00
7433;BME280;32233;49.500;7.764;2023-09-18T01:42:06;97765.16;;;17.72;100.00
7433;BME280;32233;49.500;7.764;2023-09-18T01:44:36;97767.53;;;17.73;100.00
7433;BME280;32233;49.500;7.764;2023-09-18T01:47:08;97767.00;;;17.66;100.00
7433;BME280;32233;49.500;7.764;2023-09-18T01:49:36;97765.31;;;17.45;100.00
7433;BME280;32233;49.500;7.764;2023-09-18T01:52:04;97764.19;;;17.25;100.00
7433;BME280;32233;49.500;7.764;2023-09-18T01:54:32;97755.06;;;17.11;100.00
7433;BME280;32233;49.500;7.764;2023-09-18T01:56:59;97752.59;;;16.99;100.00
7433;BME280;32233;49.500;7.764;2023-09-18T01:59:26;97760.81;;;16.93;100.00
7433;BME280;32233;49.500;7.764;2023-09-18T02:01:53;97758.63;;;16.84;100.00
7433;BME280;32233;49.500;7.764;2023-09-18T02:04:21;97758.88;;;16.78;100.00
7433;BME280;32233;49.500;7.764;2023-09-18T02:07:08;97749.38;;;16.60;100.00
7433;BME280;32233;49.500;7.764;2023-09-18T02:09:36;97750.13;;;16.50;100.00
7433;BME280;32233;49.500;7.764;2023-09-18T02:12:02;97745.28;;;16.47;100.00
7433;BME280;32233;49.500;7.764;2023-09-18T02:14:30;97746.91;;;16.48;100.00
7433;BME280;32233;49.500;7.764;2023-09-18T02:16:58;97749.03;;;16.46;100.00
7433;BME280;32233;49.500;7.764;2023-09-18T02:19:24;97748.16;;;16.41;100.00
7433;BME280;32233;49.500;7.764;2023-09-18T02:21:52;97733.78;;;16.42;100.00
7433;BME280;32233;49.500;7.764;2023-09-18T02:24:22;97724.50;;;16.49;100.00
7433;BME280;32233;49.500;7.764;2023-09-18T02:26:50;97720.22;;;16.48;100.00
7433;BME280;32233;49.500;7.764;2023-09-18T02:29:16;97706.16;;;16.58;100.00
7433;BME280;32233;49.500;7.764;2023-09-18T02:31:43;97688.94;;;16.76;100.00
7433;BME280;32233;49.500;7.764;2023-09-18T02:34:09;97687.09;;;16.81;100.00
7433;BME280;32233;49.500;7.764;2023-09-18T02:36:37;97694.06;;;16.88;100.00
7433;BME280;32233;49.500;7.764;2023-09-18T02:39:04;97687.66;;;16.89;100.00
7433;BME280;32233;49.500;7.764;2023-09-18T02:41:30;97671.63;;;16.83;100.00
7433;BME280;32233;49.500;7.764;2023-09-18T02:43:57;97670.81;;;16.78;100.00
7433;BME280;32233;49.500;7.764;2023-09-18T02:46:24;97680.44;;;16.84;100.00
7433;BME280;32233;49.500;7.764;2023-09-18T02:48:51;97679.41;;;16.90;100.00
7433;BME280;32233;49.500;7.764;2023-09-18T02:51:18;97687.16;;;16.97;100.00
7433;BME280;32233;49.500;7.764;2023-09-18T02:53:45;97696.25;;;17.06;100.00
7433;BME280;32233;49.500;7.764;2023-09-18T02:56:12;97699.78;;;17.17;100.00
7433;BME280;32233;49.500;7.764;2023-09-18T02:58:38;97710.94;;;17.81;100.00
7433;BME280;32233;49.500;7.764;2023-09-18T03:01:06;97725.34;;;18.37;100.00
7433;BME280;32233;49.500;7.764;2023-09-18T03:03:34;97739.00;;;18.55;100.00
7433;BME280;32233;49.500;7.764;2023-09-18T03:06:02;97747.03;;;18.66;100.00
7433;BME280;32233;49.500;7.764;2023-09-18T03:08:29;97735.53;;;18.70;100.00
7433;BME280;32233;49.500;7.764;2023-09-18T03:10:57;97736.56;;;18.79;100.00
7433;BME280;32233;49.500;7.764;2023-09-18T03:13:26;97731.78;;;18.71;100.00
7433;BME280;32233;49.500;7.764;2023-09-18T03:15:53;97735.25;;;18.51;100.00
7433;BME280;32233;49.500;7.764;2023-09-18T03:18:20;97741.94;;;18.54;100.00
7433;BME280;32233;49.500;7.764;2023-09-18T03:20:47;97741.13;;;18.59;100.00
7433;BME280;32233;49.500;7.764;2023-09-18T03:23:14;97734.19;;;18.58;100.00
7433;BME280;32233;49.500;7.764;2023-09-18T03:25:41;97725.34;;;18.57;100.00
7433;BME280;32233;49.500;7.764;2023-09-18T03:28:16;97736.59;;;18.49;100.00
7433;BME280;32233;49.500;7.764;2023-09-18T03:30:43;97739.28;;;18.54;100.00
7433;BME280;32233;49.500;7.764;2023-09-18T03:33:10;97740.31;;;18.63;100.00
7433;BME280;32233;49.500;7.764;2023-09-18T03:35:51;97737.13;;;18.71;100.00
7433;BME280;32233;49.500;7.764;2023-09-18T03:38:22;97730.91;;;18.96;100.00
7433;BME280;32233;49.500;7.764;2023-09-18T03:40:49;97728.44;;;19.15;100.00
7433;BME280;32233;49.500;7.764;2023-09-18T03:43:17;97708.06;;;19.19;100.00
7433;BME280;32233;49.500;7.764;2023-09-18T03:45:44;97700.00;;;19.24;100.00
7433;BME280;32233;49.500;7.764;2023-09-18T03:48:11;97695.50;;;19.15;100.00
7433;BME280;32233;49.500;7.764;2023-09-18T03:50:40;97683.94;;;19.14;100.00
7433;BME280;32233;49.500;7.764;2023-09-18T03:53:07;97693.38;;;19.07;100.00
7433;BME280;32233;49.500;7.764;2023-09-18T03:55:34;97690.50;;;18.88;100.00
7433;BME280;32233;49.500;7.764;2023-09-18T03:58:01;97686.22;;;18.81;100.00
7433;BME280;32233;49.500;7.764;2023-09-18T04:00:27;97686.00;;;18.78;100.00
7433;BME280;32233;49.500;7.764;2023-09-18T04:02:54;97674.47;;;18.67;100.00
7433;BME280;32233;49.500;7.764;2023-09-18T04:05:21;97680.38;;;18.59;100.00
7433;BME280;32233;49.500;7.764;2023-09-18T04:07:48;97661.09;;;18.57;100.00
7433;BME280;32233;49.500;7.764;2023-09-18T04:10:14;97674.25;;;18.43;100.00
7433;BME280;32233;49.500;7.764;2023-09-18T04:12:50;97667.88;;;18.34;100.00
7433;BME280;32233;49.500;7.764;2023-09-18T04:15:19;97649.16;;;18.29;100.00
7433;BME280;32233;49.500;7.764;2023-09-18T04:17:47;97647.28;;;18.19;100.00
7433;BME280;32233;49.500;7.764;2023-09-18T04:20:15;97662.00;;;18.06;100.00
7433;BME280;32233;49.500;7.764;2023-09-18T04:22:46;97656.91;;;18.00;100.00
7433;BME280;32233;49.500;7.764;2023-09-18T04:25:17;97654.25;;;17.90;100.00
7433;BME280;32233;49.500;7.764;2023-09-18T04:27:46;97645.69;;;17.82;100.00
7433;BME280;32233;49.500;7.764;2023-09-18T04:30:13;97649.44;;;17.81;100.00
7433;BME280;32233;49.500;7.764;2023-09-18T04:32:40;97654.50;;;17.73;100.00
7433;BME280;32233;49.500;7.764;2023-09-18T04:35:08;97664.34;;;17.62;100.00
7433;BME280;32233;49.500;7.764;2023-09-18T04:37:36;97673.72;;;17.70;100.00
7433;BME280;32233;49.500;7.764;2023-09-18T04:40:06;97686.88;;;17.76;100.00
7433;BME280;32233;49.500;7.764;2023-09-18T04:42:39;97689.47;;;17.66;100.00
7433;BME280;32233;49.500;7.764;2023-09-18T04:45:09;97707.63;;;17.59;100.00
7433;BME280;32233;49.500;7.764;2023-09-18T04:47:36;97721.78;;;17.54;100.00
7433;BME280;32233;49.500;7.764;2023-09-18T04:50:03;97716.44;;;17.54;100.00
7433;BME280;32233;49.500;7.764;2023-09-18T04:52:39;97712.47;;;17.62;100.00
7433;BME280;32233;49.500;7.764;2023-09-18T04:55:08;97714.34;;;17.62;100.00
7433;BME280;32233;49.500;7.764;2023-09-18T04:57:35;97723.44;;;17.66;100.00
7433;BME280;32233;49.500;7.764;2023-09-18T05:00:03;97711.41;;;17.68;100.00
7433;BME280;32233;49.500;7.764;2023-09-18T05:02:41;97731.97;;;17.63;100.00
7433;BME280;32233;49.500;7.764;2023-09-18T05:05:08;97745.09;;;17.69;100.00
7433;BME280;32233;49.500;7.764;2023-09-18T05:07:38;97737.88;;;17.65;100.00
7433;BME280;32233;49.500;7.764;2023-09-18T05:10:05;97726.91;;;17.56;100.00
7433;BME280;32233;49.500;7.764;2023-09-18T05:12:32;97735.16;;;17.49;100.00
7433;BME280;32233;49.500;7.764;2023-09-18T05:14:58;97717.53;;;17.53;100.00
7433;BME280;32233;49.500;7.764;2023-09-18T05:17:47;97705.47;;;17.51;100.00
7433;BME280;32233;49.500;7.764;2023-09-18T05:20:16;97687.56;;;17.46;100.00
7433;BME280;32233;49.500;7.764;2023-09-18T05:22:44;97696.94;;;17.44;100.00
7433;BME280;32233;49.500;7.764;2023-09-18T05:25:12;97688.63;;;17.35;100.00
7433;BME280;32233;49.500;7.764;2023-09-18T05:27:39;97693.41;;;17.23;100.00
7433;BME280;32233;49.500;7.764;2023-09-18T05:30:17;97683.50;;;17.18;100.00
7433;BME280;32233;49.500;7.764;2023-09-18T05:32:44;97681.94;;;17.27;100.00
7433;BME280;32233;49.500;7.764;2023-09-18T05:35:12;97689.16;;;17.32;100.00
7433;BME280;32233;49.500;7.764;2023-09-18T05:37:40;97697.44;;;17.36;100.00
7433;BME280;32233;49.500;7.764;2023-09-18T05:40:08;97712.97;;;17.44;100.00
7433;BME280;32233;49.500;7.764;2023-09-18T05:42:39;97700.13;;;17.51;100.00
7433;BME280;32233;49.500;7.764;2023-09-18T05:45:10;97703.09;;;17.54;100.00
7433;BME280;32233;49.500;7.764;2023-09-18T05:47:37;97694.81;;;17.61;100.00
7433;BME280;32233;49.500;7.764;2023-09-18T05:50:07;97710.84;;;17.56;100.00
7433;BME280;32233;49.500;7.764;2023-09-18T05:52:35;97724.22;;;17.56;100.00
7433;BME280;32233;49.500;7.764;2023-09-18T05:55:02;97728.78;;;17.66;100.00
7433;BME280;32233;49.500;7.764;2023-09-18T05:57:31;97735.47;;;17.68;100.00
7433;BME280;32233;49.500;7.764;2023-09-18T05:59:58;97722.09;;;17.73;100.00
7433;BME280;32233;49.500;7.764;2023-09-18T06:02:24;97736.00;;;17.70;100.00
7433;BME280;32233;49.500;7.764;2023-09-18T06:04:55;97743.50;;;17.73;100.00
7433;BME280;32233;49.500;7.764;2023-09-18T06:07:24;97741.94;;;17.77;100.00
7433;BME280;32233;49.500;7.764;2023-09-18T06:09:51;97749.69;;;17.89;100.00
7433;BME280;32233;49.500;7.764;2023-09-18T06:12:18;97750.53;;;18.10;100.00
7433;BME280;32233;49.500;7.764;2023-09-18T06:14:44;97739.84;;;18.05;100.00
7433;BME280;32233;49.500;7.764;2023-09-18T06:17:13;97758.81;;;18.09;100.00
7433;BME280;32233;49.500;7.764;2023-09-18T06:19:41;97763.63;;;18.12;100.00
7433;BME280;32233;49.500;7.764;2023-09-18T06:22:08;97773.78;;;18.04;100.00
7433;BME280;32233;49.500;7.764;2023-09-18T06:24:35;97767.66;;;18.09;100.00
7433;BME280;32233;49.500;7.764;2023-09-18T06:27:02;97775.94;;;18.18;100.00
7433;BME280;32233;49.500;7.764;2023-09-18T06:29:31;97791.19;;;18.17;100.00
7433;BME280;32233;49.500;7.764;2023-09-18T06:31:58;97774.84;;;18.24;100.00
7433;BME280;32233;49.500;7.764;2023-09-18T06:34:25;97779.13;;;18.20;100.00
7433;BME280;32233;49.500;7.764;2023-09-18T06:36:52;97787.97;;;18.15;100.00
7433;BME280;32233;49.500;7.764;2023-09-18T06:39:18;97787.72;;;18.17;100.00
7433;BME280;32233;49.500;7.764;2023-09-18T06:41:46;97774.06;;;18.18;100.00
7433;BME280;32233;49.500;7.764;2023-09-18T06:44:13;97767.38;;;18.26;100.00
7433;BME280;32233;49.500;7.764;2023-09-18T06:46:39;97774.34;;;18.22;100.00
7433;BME280;32233;49.500;7.764;2023-09-18T06:49:07;97783.97;;;18.13;100.00
7433;BME280;32233;49.500;7.764;2023-09-18T06:51:33;97800.25;;;18.06;100.00
7433;BME280;32233;49.500;7.764;2023-09-18T06:54:09;97778.88;;;18.11;100.00
7433;BME280;32233;49.500;7.764;2023-09-18T06:56:35;97793.03;;;18.12;100.00
7433;BME280;32233;49.500;7.764;2023-09-18T06:59:02;97792.00;;;18.18;100.00
7433;BME280;32233;49.500;7.764;2023-09-18T07:01:28;97786.09;;;18.16;100.00
7433;BME280;32233;49.500;7.764;2023-09-18T07:03:58;97786.88;;;18.16;100.00
7433;BME280;32233;49.500;7.764;2023-09-18T07:06:26;97786.09;;;18.16;100.00
7433;BME280;32233;49.500;7.764;2023-09-18T07:08:53;97791.97;;;18.28;100.00
7433;BME280;32233;49.500;7.764;2023-09-18T07:11:20;97780.75;;;18.36;100.00
7433;BME280;32233;49.500;7.764;2023-09-18T07:13:50;97786.38;;;18.50;100.00
7433;BME280;32233;49.500;7.764;2023-09-18T07:16:16;97785.84;;;18.48;100.00
7433;BME280;32233;49.500;7.764;2023-09-18T07:18:43;97789.28;;;18.69;100.00
7433;BME280;32233;49.500;7.764;2023-09-18T07:21:09;97788.50;;;18.63;100.00
7433;BME280;32233;49.500;7.764;2023-09-18T07:23:36;97792.00;;;18.74;100.00
7433;BME280;32233;49.500;7.764;2023-09-18T07:26:03;97793.31;;;18.81;100.00
7433;BME280;32233;49.500;7.764;2023-09-18T07:28:30;97792.81;;;18.79;100.00
7433;BME280;32233;49.500;7.764;2023-09-18T07:30:56;97789.56;;;18.77;100.00
7433;BME280;32233;49.500;7.764;2023-09-18T07:33:23;97790.94;;;18.75;100.00
7433;BME280;32233;49.500;7.764;2023-09-18T07:35:51;97802.16;;;18.62;100.00
7433;BME280;32233;49.500;7.764;2023-09-18T07:38:20;97802.19;;;18.72;100.00
7433;BME280;32233;49.500;7.764;2023-09-18T07:40:48;97788.75;;;18.97;100.00
7433;BME280;32233;49.500;7.764;2023-09-18T07:43:14;97798.13;;;18.95;100.00
7433;BME280;32233;49.500;7.764;2023-09-18T07:45:41;97793.56;;;19.00;100.00
7433;BME280;32233;49.500;7.764;2023-09-18T07:48:07;97817.13;;;18.93;100.00
7433;BME280;32233;49.500;7.764;2023-09-18T07:50:35;97820.88;;;18.97;100.00
7433;BME280;32233;49.500;7.764;2023-09-18T07:53:02;97803.19;;;19.12;100.00
7433;BME280;32233;49.500;7.764;2023-09-18T07:55:29;97806.13;;;19.05;100.00
7433;BME280;32233;49.500;7.764;2023-09-18T07:57:56;97808.81;;;19.05;100.00
7433;BME280;32233;49.500;7.764;2023-09-18T08:00:24;97818.47;;;18.96;100.00
7433;BME280;32233;49.500;7.764;2023-09-18T08:02:54;97819.00;;;18.93;100.00
7433;BME280;32233;49.500;7.764;2023-09-18T08:05:25;97819.53;;;19.00;100.00
7433;BME280;32233;49.500;7.764;2023-09-18T08:07:54;97829.47;;;18.99;100.00
7433;BME280;32233;49.500;7.764;2023-09-18T08:10:23;97830.78;;;19.02;100.00
7433;BME280;32233;49.500;7.764;2023-09-18T08:12:50;97816.84;;;19.05;100.00
7433;BME280;32233;49.500;7.764;2023-09-18T08:15:19;97805.88;;;19.01;100.00
7433;BME280;32233;49.500;7.764;2023-09-18T08:17:47;97812.03;;;18.97;100.00
7433;BME280;32233;49.500;7.764;2023-09-18T08:20:16;97825.44;;;18.97;100.00
7433;BME280;32233;49.500;7.764;2023-09-18T08:22:43;97815.25;;;18.94;100.00
7433;BME280;32233;49.500;7.764;2023-09-18T08:25:11;97822.78;;;18.81;100.00
7433;BME280;32233;49.500;7.764;2023-09-18T08:27:38;97823.03;;;18.85;100.00
7433;BME280;32233;49.500;7.764;2023-09-18T08:30:09;97821.44;;;18.84;100.00
7433;BME280;32233;49.500;7.764;2023-09-18T08:32:37;97817.69;;;18.80;100.00
7433;BME280;32233;49.500;7.764;2023-09-18T08:35:05;97816.63;;;18.91;100.00
7433;BME280;32233;49.500;7.764;2023-09-18T08:37:31;97806.69;;;18.97;100.00
7433;BME280;32233;49.500;7.764;2023-09-18T08:39:58;97826.75;;;19.04;100.00
7433;BME280;32233;49.500;7.764;2023-09-18T08:42:32;97815.50;;;19.08;100.00
7433;BME280;32233;49.500;7.764;2023-09-18T08:45:01;97802.88;;;19.18;100.00
7433;BME280;32233;49.500;7.764;2023-09-18T08:47:29;97813.03;;;19.32;100.00
7433;BME280;32233;49.500;7.764;2023-09-18T08:50:00;97828.00;;;19.43;100.00
7433;BME280;32233;49.500;7.764;2023-09-18T08:52:28;97826.94;;;19.34;100.00
7433;BME280;32233;49.500;7.764;2023-09-18T08:54:55;97829.09;;;19.37;100.00
7433;BME280;32233;49.500;7.764;2023-09-18T08:57:23;97830.66;;;19.53;100.00
7433;BME280;32233;49.500;7.764;2023-09-18T08:59:50;97829.34;;;19.45;100.00
7433;BME280;32233;49.500;7.764;2023-09-18T09:02:18;97833.91;;;19.40;100.00
7433;BME280;32233;49.500;7.764;2023-09-18T09:04:45;97825.81;;;19.50;100.00
7433;BME280;32233;49.500;7.764;2023-09-18T09:07:11;97831.44;;;19.53;100.00
7433;BME280;32233;49.500;7.764;2023-09-18T09:09:39;97832.56;;;19.42;100.00
7433;BME280;32233;49.500;7.764;2023-09-18T09:12:05;97841.09;;;19.49;100.00
7433;BME280;32233;49.500;7.764;2023-09-18T09:14:32;97845.66;;;19.64;100.00
7433;BME280;32233;49.500;7.764;2023-09-18T09:16:59;97838.66;;;19.68;100.00
7433;BME280;32233;49.500;7.764;2023-09-18T09:19:35;97825.50;;;19.72;100.00
7433;BME280;32233;49.500;7.764;2023-09-18T09:22:08;97828.94;;;19.83;100.00
7433;BME280;32233;49.500;7.764;2023-09-18T09:24:44;97820.22;;;20.06;100.00
7433;BME280;32233;49.500;7.764;2023-09-18T09:27:11;97829.81;;;20.12;100.00
7433;BME280;32233;49.500;7.764;2023-09-18T09:29:40;97838.06;;;20.26;100.00
7433;BME280;32233;49.500;7.764;2023-09-18T09:32:16;97847.97;;;20.31;100.00
7433;BME280;32233;49.500;7.764;2023-09-18T09:34:44;97849.03;;;20.35;100.00
7433;BME280;32233;49.500;7.764;2023-09-18T09:37:10;97842.00;;;20.39;100.00
7433;BME280;32233;49.500;7.764;2023-09-18T09:39:50;97829.97;;;20.31;100.00
7433;BME280;32233;49.500;7.764;2023-09-18T09:42:20;97835.63;;;20.29;100.00
7433;BME280;32233;49.500;7.764;2023-09-18T09:45:01;97834.59;;;20.20;100.00
7433;BME280;32233;49.500;7.764;2023-09-18T09:47:35;97826.34;;;20.17;100.00
7433;BME280;32233;49.500;7.764;2023-09-18T09:50:07;97823.41;;;20.13;100.00
7433;BME280;32233;49.500;7.764;2023-09-18T09:52:36;97834.69;;;20.10;100.00
7433;BME280;32233;49.500;7.764;2023-09-18T09:55:27;97827.44;;;20.11;100.00
7433;BME280;32233;49.500;7.764;2023-09-18T09:58:03;97833.06;;;20.14;100.00
7433;BME280;32233;49.500;7.764;2023-09-18T10:00:33;97826.34;;;20.17;100.00
7433;BME280;32233;49.500;7.764;2023-09-18T10:03:11;97844.41;;;20.40;100.00
7433;BME280;32233;49.500;7.764;2023-09-18T10:05:42;97850.56;;;20.41;100.00
7433;BME280;32233;49.500;7.764;2023-09-18T10:10:45;97845.13;;;20.56;100.00
7433;BME280;32233;49.500;7.764;2023-09-18T10:13:31;97837.63;;;20.53;100.00
7433;BME280;32233;49.500;7.764;2023-09-18T10:15:58;97846.25;;;20.50;100.00
7433;BME280;32233;49.500;7.764;2023-09-18T10:18:39;97839.50;;;20.52;100.00
7433;BME280;32233;49.500;7.764;2023-09-18T10:21:24;97833.28;;;20.62;100.00
7433;BME280;32233;49.500;7.764;2023-09-18T10:24:14;97837.59;;;20.58;100.00
7433;BME280;32233;49.500;7.764;2023-09-18T10:27:03;97833.34;;;20.52;100.00
7433;BME280;32233;49.500;7.764;2023-09-18T10:29:36;97838.44;;;20.53;100.00
7433;BME280;32233;49.500;7.764;2023-09-18T10:32:04;97834.34;;;20.61;100.00
7433;BME280;32233;49.500;7.764;2023-09-18T10:34:38;97834.75;;;20.78;100.00
7433;BME280;32233;49.500;7.764;2023-09-18T10:37:07;97839.78;;;20.85;100.00
7433;BME280;32233;49.500;7.764;2023-09-18T10:39:35;97836.81;;;20.87;100.00
7433;BME280;32233;49.500;7.764;2023-09-18T10:42:04;97829.38;;;20.78;100.00
7433;BME280;32233;49.500;7.764;2023-09-18T10:44:33;97823.22;;;20.78;100.00
7433;BME280;32233;49.500;7.764;2023-09-18T10:47:04;97837.16;;;20.80;100.00
7433;BME280;32233;49.500;7.764;2023-09-18T10:49:33;97816.81;;;20.69;100.00
7433;BME280;32233;49.500;7.764;2023-09-18T10:52:01;97817.13;;;20.67;100.00
7433;BME280;32233;49.500;7.764;2023-09-18T10:54:31;97820.97;;;20.85;100.00
7433;BME280;32233;49.500;7.764;2023-09-18T10:56:58;97823.94;;;20.84;100.00
7433;BME280;32233;49.500;7.764;2023-09-18T10:59:24;97819.91;;;20.86;100.00
7433;BME280;32233;49.500;7.764;2023-09-18T11:01:51;97817.00;;;20.77;100.00
7433;BME280;32233;49.500;7.764;2023-09-18T11:04:20;97822.63;;;20.81;100.00
7433;BME280;32233;49.500;7.764;2023-09-18T11:12:01;97822.50;;;20.67;100.00
7433;BME280;32233;49.500;7.764;2023-09-18T11:17:32;97805.66;;;20.57;100.00
7433;BME280;32233;49.500;7.764;2023-09-18T11:22:59;97822.97;;;20.74;100.00
7433;BME280;32233;49.500;7.764;2023-09-18T11:25:35;97821.56;;;20.82;100.00
7433;BME280;32233;49.500;7.764;2023-09-18T11:28:02;97822.19;;;20.69;100.00
7433;BME280;32233;49.500;7.764;2023-09-18T11:30:29;97825.91;;;20.73;100.00
7433;BME280;32233;49.500;7.764;2023-09-18T11:32:56;97827.91;;;20.91;100.00
7433;BME280;32233;49.500;7.764;2023-09-18T11:35:24;97829.19;;;20.99;100.00
7433;BME280;32233;49.500;7.764;2023-09-18T11:38:10;97832.84;;;21.08;100.00
7433;BME280;32233;49.500;7.764;2023-09-18T11:40:38;97819.47;;;21.32;100.00
7433;BME280;32233;49.500;7.764;2023-09-18T11:43:24;97817.25;;;21.39;98.53
7433;BME280;32233;49.500;7.764;2023-09-18T11:45:59;97826.44;;;21.33;99.82
7433;BME280;32233;49.500;7.764;2023-09-18T11:48:28;97832.03;;;21.37;100.00
7433;BME280;32233;49.500;7.764;2023-09-18T11:50:57;97821.59;;;21.30;100.00
7433;BME280;32233;49.500;7.764;2023-09-18T11:53:27;97827.16;;;21.39;99.51
7433;BME280;32233;49.500;7.764;2023-09-18T11:55:53;97825.47;;;21.48;99.96
7433;BME280;32233;49.500;7.764;2023-09-18T11:58:21;97830.63;;;21.44;99.63
7433;BME280;32233;49.500;7.764;2023-09-18T12:00:50;97826.72;;;21.26;99.40
7433;BME280;32233;49.500;7.764;2023-09-18T12:03:19;97815.94;;;21.32;100.00
7433;BME280;32233;49.500;7.764;2023-09-18T12:05:58;97821.09;;;21.28;99.02
7433;BME280;32233;49.500;7.764;2023-09-18T12:08:26;97820.06;;;21.24;99.74
7433;BME280;32233;49.500;7.764;2023-09-18T12:10:56;97819.69;;;21.31;99.60
7433;BME280;32233;49.500;7.764;2023-09-18T12:13:25;97820.00;;;21.29;98.51
7433;BME280;32233;49.500;7.764;2023-09-18T12:15:59;97817.56;;;21.33;97.27
7433;BME280;32233;49.500;7.764;2023-09-18T12:18:28;97811.50;;;21.46;95.59
7433;BME280;32233;49.500;7.764;2023-09-18T12:20:56;97812.19;;;21.57;94.15
7433;BME280;32233;49.500;7.764;2023-09-18T12:23:25;97814.81;;;21.62;96.47
7433;BME280;32233;49.500;7.764;2023-09-18T12:25:58;97806.16;;;21.84;95.74
7433;BME280;32233;49.500;7.764;2023-09-18T12:28:26;97817.03;;;21.97;94.23
7433;BME280;32233;49.500;7.764;2023-09-18T12:30:56;97815.72;;;21.76;96.97
7433;BME280;32233;49.500;7.764;2023-09-18T12:33:23;97812.78;;;21.91;98.61
7433;BME280;32233;49.500;7.764;2023-09-18T12:35:51;97811.09;;;22.19;94.20
7433;BME280;32233;49.500;7.764;2023-09-18T12:38:19;97803.81;;;22.01;94.65
7433;BME280;32233;49.500;7.764;2023-09-18T12:40:49;97800.72;;;21.70;93.69
7433;BME280;32233;49.500;7.764;2023-09-18T12:43:16;97816.16;;;21.59;94.56
7433;BME280;32233;49.500;7.764;2023-09-18T12:45:44;97809.69;;;21.41;95.50
7433;BME280;32233;49.500;7.764;2023-09-18T12:48:12;97807.91;;;21.56;95.59
7433;BME280;32233;49.500;7.764;2023-09-18T12:50:41;97811.72;;;21.49;96.18
7433;BME280;32233;49.500;7.764;2023-09-18T12:53:12;97818.94;;;21.54;93.96
7433;BME280;32233;49.500;7.764;2023-09-18T12:55:40;97813.63;;;21.49;94.90
7433;BME280;32233;49.500;7.764;2023-09-18T12:58:10;97820.44;;;21.41;94.88
7433;BME280;32233;49.500;7.764;2023-09-18T13:00:47;97821.16;;;21.47;93.99
7433;BME280;32233;49.500;7.764;2023-09-18T13:03:16;97816.47;;;21.58;92.20
7433;BME280;32233;49.500;7.764;2023-09-18T13:05:43;97806.63;;;21.72;90.64
7433;BME280;32233;49.500;7.764;2023-09-18T13:08:10;97801.00;;;21.68;90.48
7433;BME280;32233;49.500;7.764;2023-09-18T13:10:45;97805.91;;;21.85;89.32
7433;BME280;32233;49.500;7.764;2023-09-18T13:13:20;97799.13;;;21.69;91.09
7433;BME280;32233;49.500;7.764;2023-09-18T13:15:48;97804.28;;;21.65;88.06
7433;BME280;32233;49.500;7.764;2023-09-18T13:18:18;97789.53;;;22.38;84.23
7433;BME280;32233;49.500;7.764;2023-09-18T13:20:46;97790.81;;;22.41;83.61
7433;BME280;32233;49.500;7.764;2023-09-18T13:23:12;97782.25;;;22.85;83.80
7433;BME280;32233;49.500;7.764;2023-09-18T13:25:40;97778.91;;;22.93;83.21